This is the latest recevied weather packets stored in our database for station/object EB1HRW. If no packets are shown the sender has not sent any weather packets the latest 10 day(s).
| Time | Temp. | Humidity | Pressure | Rain* | Wind** | Luminosity | Snow |
|---|---|---|---|---|---|---|---|
| 1787589177 | 23.89° C | 55% | 1007.6 hPa | 0 mm | - | - | - |
| 1787588278 | 23.33° C | 54% | 1007.4 hPa | 0 mm | - | - | - |
| 1787587379 | 23.89° C | 52% | 1007.2 hPa | 0 mm | - | - | - |
| 1787586478 | 23.33° C | 54% | 1007.3 hPa | 0 mm | - | - | - |
| 1787585578 | 24.44° C | 52% | 1007.4 hPa | 0 mm | - | - | - |
| 1787584679 | 24.44° C | 47% | 1007 hPa | 0 mm | - | - | - |
| 1787583777 | 24.44° C | 49% | 1007.5 hPa | 0 mm | - | - | - |
| 1787582878 | 24.44° C | 49% | 1007.6 hPa | 0 mm | - | - | - |
| 1787581978 | 23.89° C | 51% | 1007.7 hPa | 0 mm | - | - | - |
| 1787581085 | 23.89° C | 50% | 1007.9 hPa | 0 mm | - | - | - |
| 1787578377 | 24.44° C | 50% | 1007.9 hPa | 0 mm | - | - | - |
| 1787577478 | 24.44° C | 49% | 1008.1 hPa | 0 mm | - | - | - |
| 1787576578 | 23.33° C | 56% | 1008.1 hPa | 0 mm | - | - | - |
| 1787575679 | 23.89° C | 52% | 1008.3 hPa | 0 mm | - | - | - |
| 1787574777 | 23.89° C | 51% | 1008.2 hPa | 0 mm | - | - | - |
| 1787573878 | 23.33° C | 52% | 1008.4 hPa | 0 mm | - | - | - |
| 1787572978 | 23.33° C | 52% | 1008.4 hPa | 0 mm | - | - | - |
| 1787572089 | 23.33° C | 52% | 1008.3 hPa | 0 mm | - | - | - |
| 1787569378 | 22.78° C | 56% | 1008.6 hPa | 0 mm | - | - | - |
| 1787568479 | 22.22° C | 58% | 1008.7 hPa | 0 mm | - | - | - |
| 1787567577 | 21.67° C | 61% | 1008.8 hPa | 0 mm | - | - | - |
| 1787566678 | 21.11° C | 63% | 1008.8 hPa | 0 mm | - | - | - |
| 1787565778 | 21.11° C | 63% | 1008.9 hPa | 0 mm | - | - | - |
| 1787564879 | 21.11° C | 65% | 1009 hPa | 0 mm | - | - | - |
| 1787563979 | 21.11° C | 67% | 1008.9 hPa | 0 mm | - | - | - |
* Rain latest hour (hover to see other rain measurements)
** Current wind speed in m/s (hover to see current wind gust speed)